Página principal
METAR-TAF:

METAR-TAF

Aeroportos :

Zanjan, Irão

latitude: 36-41N, longitude: 048-29E, altura: 1663 m

Observação actual do tempo

O boletim foi feito há 11 horas e 32 minutos, às 15:00 UTC
Vento 12 kt de su-sudoeste
Temperatura 15°C
Humidade 23%
Pressão 1013 hPa
Visibilidade 10 km ou mais
Poucas nuvensa uma altura de 3500 ft
Nuvens fragmentadasa uma altura de 7000 ft

METAR: OITZ 181500Z 20012KT 9999 FEW035 BKN070 15/M06 Q1013

Hora: 07:02 (02:32 UTC)


TAF: em falta

Observações e previsões do tempo de mais de 4000 aeroportos (mensagens METAR e TAF).

As estações disponíveis são os pontos amarelos e vermelhos sobre o mapa.

Mova o rato sobre o mapa para ver o nome da estação.

Depois clique no ponto para visualizar as observações e previsões meteorológicas.

Para alterar o mapa : clique nos botões verdes com uma cruz preta para aumentar o zoom; no botão verde com uma pitada de zoom; ou nas setas verdes para mapas adjacentes.


METAR-TAF: